sensor_id;sensor_type;location;lat;lon;timestamp;P1;durP1;ratioP1;P2;durP2;ratioP2
50104;SDS011;47690;39.202;-77.198;2023-09-19T00:02:17;3.17;;;2.88;;
50104;SDS011;47690;39.202;-77.198;2023-09-19T00:04:51;3.67;;;3.13;;
50104;SDS011;47690;39.202;-77.198;2023-09-19T00:07:51;6.38;;;3.25;;
50104;SDS011;47690;39.202;-77.198;2023-09-19T00:10:32;3.17;;;2.88;;
50104;SDS011;47690;39.202;-77.198;2023-09-19T00:13:33;4.05;;;3.33;;
50104;SDS011;47690;39.202;-77.198;2023-09-19T00:16:19;3.42;;;2.92;;
50104;SDS011;47690;39.202;-77.198;2023-09-19T00:19:06;3.60;;;3.17;;
50104;SDS011;47690;39.202;-77.198;2023-09-19T00:21:43;3.80;;;3.40;;
50104;SDS011;47690;39.202;-77.198;2023-09-19T00:24:30;3.60;;;3.17;;
50104;SDS011;47690;39.202;-77.198;2023-09-19T00:27:31;3.80;;;3.42;;
50104;SDS011;47690;39.202;-77.198;2023-09-19T00:30:44;3.50;;;3.08;;
50104;SDS011;47690;39.202;-77.198;2023-09-19T00:34:10;3.90;;;3.45;;
50104;SDS011;47690;39.202;-77.198;2023-09-19T00:37:11;3.35;;;3.05;;
50104;SDS011;47690;39.202;-77.198;2023-09-19T00:40:44;3.30;;;3.00;;
50104;SDS011;47690;39.202;-77.198;2023-09-19T00:43:47;3.20;;;2.90;;
50104;SDS011;47690;39.202;-77.198;2023-09-19T00:46:23;4.22;;;3.03;;
50104;SDS011;47690;39.202;-77.198;2023-09-19T00:49:12;4.18;;;2.97;;
50104;SDS011;47690;39.202;-77.198;2023-09-19T00:51:47;3.40;;;3.10;;
50104;SDS011;47690;39.202;-77.198;2023-09-19T00:54:23;5.95;;;3.25;;
50104;SDS011;47690;39.202;-77.198;2023-09-19T00:57:02;3.22;;;2.92;;
50104;SDS011;47690;39.202;-77.198;2023-09-19T00:59:39;4.47;;;2.75;;
50104;SDS011;47690;39.202;-77.198;2023-09-19T01:02:10;4.85;;;3.40;;
50104;SDS011;47690;39.202;-77.198;2023-09-19T01:04:51;4.72;;;3.20;;
50104;SDS011;47690;39.202;-77.198;2023-09-19T01:07:38;3.05;;;2.75;;
50104;SDS011;47690;39.202;-77.198;2023-09-19T01:10:20;3.63;;;3.20;;
50104;SDS011;47690;39.202;-77.198;2023-09-19T01:22:13;3.08;;;2.75;;
50104;SDS011;47690;39.202;-77.198;2023-09-19T01:28:25;3.20;;;2.90;;
50104;SDS011;47690;39.202;-77.198;2023-09-19T01:31:10;3.45;;;3.15;;
50104;SDS011;47690;39.202;-77.198;2023-09-19T01:33:55;3.55;;;3.20;;
50104;SDS011;47690;39.202;-77.198;2023-09-19T01:36:35;3.83;;;3.30;;
50104;SDS011;47690;39.202;-77.198;2023-09-19T01:39:14;3.65;;;3.30;;
50104;SDS011;47690;39.202;-77.198;2023-09-19T01:41:54;5.05;;;3.00;;
50104;SDS011;47690;39.202;-77.198;2023-09-19T01:45:06;3.47;;;3.13;;
50104;SDS011;47690;39.202;-77.198;2023-09-19T01:48:54;5.00;;;3.10;;
50104;SDS011;47690;39.202;-77.198;2023-09-19T01:55:59;5.70;;;3.37;;
50104;SDS011;47690;39.202;-77.198;2023-09-19T01:58:45;4.10;;;3.40;;
50104;SDS011;47690;39.202;-77.198;2023-09-19T02:01:31;4.68;;;3.30;;
50104;SDS011;47690;39.202;-77.198;2023-09-19T02:04:43;3.72;;;3.38;;
50104;SDS011;47690;39.202;-77.198;2023-09-19T02:07:33;4.72;;;3.38;;
50104;SDS011;47690;39.202;-77.198;2023-09-19T02:10:54;4.25;;;3.25;;
50104;SDS011;47690;39.202;-77.198;2023-09-19T02:13:30;5.13;;;3.25;;
50104;SDS011;47690;39.202;-77.198;2023-09-19T02:16:12;3.65;;;3.10;;
50104;SDS011;47690;39.202;-77.198;2023-09-19T02:18:48;5.03;;;3.20;;
50104;SDS011;47690;39.202;-77.198;2023-09-19T02:21:35;3.70;;;3.30;;
50104;SDS011;47690;39.202;-77.198;2023-09-19T02:24:15;3.90;;;3.38;;
50104;SDS011;47690;39.202;-77.198;2023-09-19T02:26:55;4.18;;;3.30;;
50104;SDS011;47690;39.202;-77.198;2023-09-19T02:29:35;4.30;;;3.45;;
50104;SDS011;47690;39.202;-77.198;2023-09-19T02:32:05;4.55;;;3.35;;
50104;SDS011;47690;39.202;-77.198;2023-09-19T02:34:44;5.63;;;3.50;;
50104;SDS011;47690;39.202;-77.198;2023-09-19T02:37:21;3.90;;;3.35;;
50104;SDS011;47690;39.202;-77.198;2023-09-19T02:39:56;4.20;;;3.40;;
50104;SDS011;47690;39.202;-77.198;2023-09-19T02:42:42;4.93;;;3.53;;
50104;SDS011;47690;39.202;-77.198;2023-09-19T02:45:27;4.25;;;3.45;;
50104;SDS011;47690;39.202;-77.198;2023-09-19T02:48:10;3.60;;;3.30;;
50104;SDS011;47690;39.202;-77.198;2023-09-19T02:50:52;4.85;;;3.70;;
50104;SDS011;47690;39.202;-77.198;2023-09-19T02:53:34;4.38;;;3.17;;
50104;SDS011;47690;39.202;-77.198;2023-09-19T02:56:07;4.45;;;3.33;;
50104;SDS011;47690;39.202;-77.198;2023-09-19T02:58:48;3.50;;;3.20;;
50104;SDS011;47690;39.202;-77.198;2023-09-19T03:01:31;5.45;;;3.13;;
50104;SDS011;47690;39.202;-77.198;2023-09-19T03:04:14;4.68;;;3.60;;
50104;SDS011;47690;39.202;-77.198;2023-09-19T03:06:56;4.30;;;3.38;;
50104;SDS011;47690;39.202;-77.198;2023-09-19T03:09:36;3.20;;;2.88;;
50104;SDS011;47690;39.202;-77.198;2023-09-19T03:12:27;3.38;;;3.05;;
50104;SDS011;47690;39.202;-77.198;2023-09-19T03:15:34;3.45;;;2.80;;
50104;SDS011;47690;39.202;-77.198;2023-09-19T03:18:39;4.07;;;3.00;;
50104;SDS011;47690;39.202;-77.198;2023-09-19T03:21:18;3.67;;;3.00;;
50104;SDS011;47690;39.202;-77.198;2023-09-19T03:23:56;4.65;;;3.55;;
50104;SDS011;47690;39.202;-77.198;2023-09-19T03:26:30;4.25;;;3.00;;
50104;SDS011;47690;39.202;-77.198;2023-09-19T03:29:12;7.00;;;3.35;;
50104;SDS011;47690;39.202;-77.198;2023-09-19T03:31:48;4.38;;;3.45;;
50104;SDS011;47690;39.202;-77.198;2023-09-19T03:34:22;3.25;;;2.90;;
50104;SDS011;47690;39.202;-77.198;2023-09-19T03:37:00;4.13;;;3.20;;
50104;SDS011;47690;39.202;-77.198;2023-09-19T03:39:35;4.10;;;3.00;;
50104;SDS011;47690;39.202;-77.198;2023-09-19T03:42:08;5.03;;;3.20;;
50104;SDS011;47690;39.202;-77.198;2023-09-19T03:44:48;3.72;;;2.90;;
50104;SDS011;47690;39.202;-77.198;2023-09-19T03:47:24;3.45;;;3.00;;
50104;SDS011;47690;39.202;-77.198;2023-09-19T03:50:06;3.28;;;2.97;;
50104;SDS011;47690;39.202;-77.198;2023-09-19T03:52:46;3.53;;;2.88;;
50104;SDS011;47690;39.202;-77.198;2023-09-19T03:55:18;3.50;;;2.92;;
50104;SDS011;47690;39.202;-77.198;2023-09-19T03:57:50;3.10;;;2.80;;
50104;SDS011;47690;39.202;-77.198;2023-09-19T04:00:24;3.42;;;3.05;;
50104;SDS011;47690;39.202;-77.198;2023-09-19T04:03:07;5.95;;;2.90;;
50104;SDS011;47690;39.202;-77.198;2023-09-19T04:05:39;5.03;;;3.35;;
50104;SDS011;47690;39.202;-77.198;2023-09-19T04:08:12;3.97;;;3.25;;
50104;SDS011;47690;39.202;-77.198;2023-09-19T04:10:47;4.68;;;3.10;;
50104;SDS011;47690;39.202;-77.198;2023-09-19T04:13:20;5.28;;;3.10;;
50104;SDS011;47690;39.202;-77.198;2023-09-19T04:15:54;3.65;;;3.00;;
50104;SDS011;47690;39.202;-77.198;2023-09-19T04:18:36;4.00;;;2.92;;
50104;SDS011;47690;39.202;-77.198;2023-09-19T04:21:10;5.25;;;3.00;;
50104;SDS011;47690;39.202;-77.198;2023-09-19T04:23:42;4.47;;;2.97;;
50104;SDS011;47690;39.202;-77.198;2023-09-19T04:26:12;4.32;;;3.00;;
50104;SDS011;47690;39.202;-77.198;2023-09-19T04:28:48;4.65;;;3.10;;
50104;SDS011;47690;39.202;-77.198;2023-09-19T04:31:20;4.45;;;3.13;;
50104;SDS011;47690;39.202;-77.198;2023-09-19T04:34:03;4.20;;;3.10;;
50104;SDS011;47690;39.202;-77.198;2023-09-19T04:36:38;6.25;;;3.10;;
50104;SDS011;47690;39.202;-77.198;2023-09-19T04:39:11;3.90;;;3.15;;
50104;SDS011;47690;39.202;-77.198;2023-09-19T04:44:19;4.43;;;2.75;;
50104;SDS011;47690;39.202;-77.198;2023-09-19T04:46:48;5.95;;;2.90;;
50104;SDS011;47690;39.202;-77.198;2023-09-19T04:49:22;3.53;;;2.88;;
50104;SDS011;47690;39.202;-77.198;2023-09-19T04:51:55;3.85;;;3.30;;
50104;SDS011;47690;39.202;-77.198;2023-09-19T04:54:24;5.18;;;3.13;;
50104;SDS011;47690;39.202;-77.198;2023-09-19T04:56:59;5.38;;;3.03;;
50104;SDS011;47690;39.202;-77.198;2023-09-19T04:59:37;4.80;;;3.10;;
50104;SDS011;47690;39.202;-77.198;2023-09-19T05:02:15;4.13;;;2.97;;
50104;SDS011;47690;39.202;-77.198;2023-09-19T05:04:55;3.22;;;2.88;;
50104;SDS011;47690;39.202;-77.198;2023-09-19T05:07:31;3.53;;;3.00;;
50104;SDS011;47690;39.202;-77.198;2023-09-19T05:10:04;6.32;;;2.88;;
50104;SDS011;47690;39.202;-77.198;2023-09-19T05:12:39;4.15;;;3.03;;
50104;SDS011;47690;39.202;-77.198;2023-09-19T05:15:12;7.63;;;3.13;;
50104;SDS011;47690;39.202;-77.198;2023-09-19T05:17:50;4.00;;;3.03;;
50104;SDS011;47690;39.202;-77.198;2023-09-19T05:20:26;11.43;;;3.13;;
50104;SDS011;47690;39.202;-77.198;2023-09-19T05:23:06;4.40;;;3.30;;
50104;SDS011;47690;39.202;-77.198;2023-09-19T05:25:43;3.22;;;2.90;;
50104;SDS011;47690;39.202;-77.198;2023-09-19T05:28:16;4.90;;;2.90;;
50104;SDS011;47690;39.202;-77.198;2023-09-19T05:30:50;3.47;;;3.00;;
50104;SDS011;47690;39.202;-77.198;2023-09-19T05:33:21;3.67;;;3.17;;
50104;SDS011;47690;39.202;-77.198;2023-09-19T05:35:52;4.22;;;3.30;;
50104;SDS011;47690;39.202;-77.198;2023-09-19T05:38:28;4.20;;;3.20;;
50104;SDS011;47690;39.202;-77.198;2023-09-19T05:40:59;5.60;;;3.28;;
50104;SDS011;47690;39.202;-77.198;2023-09-19T05:43:37;3.33;;;2.90;;
50104;SDS011;47690;39.202;-77.198;2023-09-19T05:46:12;5.32;;;3.25;;
50104;SDS011;47690;39.202;-77.198;2023-09-19T05:48:47;3.95;;;3.40;;
50104;SDS011;47690;39.202;-77.198;2023-09-19T05:51:19;4.78;;;3.38;;
50104;SDS011;47690;39.202;-77.198;2023-09-19T05:53:54;3.53;;;3.10;;
50104;SDS011;47690;39.202;-77.198;2023-09-19T05:56:26;3.40;;;2.95;;
50104;SDS011;47690;39.202;-77.198;2023-09-19T05:58:57;3.70;;;3.20;;
50104;SDS011;47690;39.202;-77.198;2023-09-19T06:01:35;3.72;;;3.10;;
50104;SDS011;47690;39.202;-77.198;2023-09-19T06:04:07;3.80;;;3.10;;
50104;SDS011;47690;39.202;-77.198;2023-09-19T06:06:40;3.30;;;3.00;;
50104;SDS011;47690;39.202;-77.198;2023-09-19T06:09:13;4.10;;;3.60;;
50104;SDS011;47690;39.202;-77.198;2023-09-19T06:11:52;4.13;;;3.33;;
50104;SDS011;47690;39.202;-77.198;2023-09-19T06:14:35;4.38;;;3.50;;
50104;SDS011;47690;39.202;-77.198;2023-09-19T06:17:18;5.15;;;3.22;;
50104;SDS011;47690;39.202;-77.198;2023-09-19T06:19:50;3.40;;;3.10;;
50104;SDS011;47690;39.202;-77.198;2023-09-19T06:22:31;3.28;;;2.80;;
50104;SDS011;47690;39.202;-77.198;2023-09-19T06:25:17;3.28;;;2.80;;
50104;SDS011;47690;39.202;-77.198;2023-09-19T06:27:52;4.63;;;3.10;;
50104;SDS011;47690;39.202;-77.198;2023-09-19T06:30:32;3.63;;;3.03;;
50104;SDS011;47690;39.202;-77.198;2023-09-19T06:33:12;6.03;;;3.40;;
50104;SDS011;47690;39.202;-77.198;2023-09-19T06:35:50;4.05;;;3.40;;
50104;SDS011;47690;39.202;-77.198;2023-09-19T06:38:38;3.80;;;3.10;;
50104;SDS011;47690;39.202;-77.198;2023-09-19T06:41:24;3.47;;;3.03;;
50104;SDS011;47690;39.202;-77.198;2023-09-19T06:44:23;3.53;;;2.97;;
50104;SDS011;47690;39.202;-77.198;2023-09-19T06:46:59;4.18;;;3.30;;
50104;SDS011;47690;39.202;-77.198;2023-09-19T06:49:42;3.75;;;3.10;;
50104;SDS011;47690;39.202;-77.198;2023-09-19T06:52:24;6.28;;;3.38;;
50104;SDS011;47690;39.202;-77.198;2023-09-19T06:55:14;3.97;;;3.33;;
50104;SDS011;47690;39.202;-77.198;2023-09-19T06:57:58;4.32;;;3.20;;
50104;SDS011;47690;39.202;-77.198;2023-09-19T07:00:42;5.70;;;3.73;;
50104;SDS011;47690;39.202;-77.198;2023-09-19T07:03:39;4.72;;;3.20;;
50104;SDS011;47690;39.202;-77.198;2023-09-19T07:06:20;5.88;;;3.13;;
50104;SDS011;47690;39.202;-77.198;2023-09-19T07:08:58;4.07;;;3.45;;
50104;SDS011;47690;39.202;-77.198;2023-09-19T07:11:45;4.07;;;3.65;;
50104;SDS011;47690;39.202;-77.198;2023-09-19T07:14:27;4.43;;;3.42;;
50104;SDS011;47690;39.202;-77.198;2023-09-19T07:17:13;4.10;;;3.30;;
50104;SDS011;47690;39.202;-77.198;2023-09-19T07:19:55;4.20;;;3.53;;
50104;SDS011;47690;39.202;-77.198;2023-09-19T07:23:01;3.42;;;2.92;;
50104;SDS011;47690;39.202;-77.198;2023-09-19T07:25:38;5.03;;;3.72;;
50104;SDS011;47690;39.202;-77.198;2023-09-19T07:28:12;4.20;;;3.80;;
50104;SDS011;47690;39.202;-77.198;2023-09-19T07:30:52;5.32;;;4.05;;
50104;SDS011;47690;39.202;-77.198;2023-09-19T07:33:28;4.93;;;3.70;;
50104;SDS011;47690;39.202;-77.198;2023-09-19T07:36:04;5.07;;;3.83;;
50104;SDS011;47690;39.202;-77.198;2023-09-19T07:38:40;3.85;;;3.30;;
50104;SDS011;47690;39.202;-77.198;2023-09-19T07:41:14;4.47;;;3.67;;
50104;SDS011;47690;39.202;-77.198;2023-09-19T07:43:51;4.53;;;3.33;;
50104;SDS011;47690;39.202;-77.198;2023-09-19T07:46:22;5.30;;;3.97;;
50104;SDS011;47690;39.202;-77.198;2023-09-19T07:48:59;4.10;;;3.58;;
50104;SDS011;47690;39.202;-77.198;2023-09-19T07:51:30;4.50;;;3.55;;
50104;SDS011;47690;39.202;-77.198;2023-09-19T07:54:15;4.28;;;3.65;;
50104;SDS011;47690;39.202;-77.198;2023-09-19T07:56:54;4.32;;;3.58;;
50104;SDS011;47690;39.202;-77.198;2023-09-19T07:59:35;4.57;;;3.75;;
50104;SDS011;47690;39.202;-77.198;2023-09-19T08:02:13;4.45;;;3.72;;
50104;SDS011;47690;39.202;-77.198;2023-09-19T08:04:45;6.35;;;3.50;;
50104;SDS011;47690;39.202;-77.198;2023-09-19T08:07:20;4.88;;;3.85;;
50104;SDS011;47690;39.202;-77.198;2023-09-19T08:09:56;4.70;;;4.07;;
50104;SDS011;47690;39.202;-77.198;2023-09-19T08:12:34;4.63;;;3.70;;
50104;SDS011;47690;39.202;-77.198;2023-09-19T08:15:07;5.27;;;3.60;;
50104;SDS011;47690;39.202;-77.198;2023-09-19T08:17:42;4.28;;;3.70;;
50104;SDS011;47690;39.202;-77.198;2023-09-19T08:20:14;6.60;;;3.72;;
50104;SDS011;47690;39.202;-77.198;2023-09-19T08:22:53;5.95;;;3.67;;
50104;SDS011;47690;39.202;-77.198;2023-09-19T08:25:36;4.35;;;3.63;;
50104;SDS011;47690;39.202;-77.198;2023-09-19T08:30:44;4.68;;;3.60;;
50104;SDS011;47690;39.202;-77.198;2023-09-19T08:33:16;3.42;;;3.05;;
50104;SDS011;47690;39.202;-77.198;2023-09-19T08:35:56;4.78;;;3.50;;
50104;SDS011;47690;39.202;-77.198;2023-09-19T08:38:35;4.43;;;3.50;;
50104;SDS011;47690;39.202;-77.198;2023-09-19T08:41:07;5.68;;;3.42;;
50104;SDS011;47690;39.202;-77.198;2023-09-19T08:43:46;4.50;;;3.42;;
50104;SDS011;47690;39.202;-77.198;2023-09-19T08:46:20;3.97;;;3.45;;
50104;SDS011;47690;39.202;-77.198;2023-09-19T08:49:08;4.65;;;3.63;;
50104;SDS011;47690;39.202;-77.198;2023-09-19T08:51:59;6.55;;;3.83;;
50104;SDS011;47690;39.202;-77.198;2023-09-19T08:54:48;3.55;;;3.08;;
50104;SDS011;47690;39.202;-77.198;2023-09-19T08:57:28;4.22;;;3.50;;
50104;SDS011;47690;39.202;-77.198;2023-09-19T09:00:11;5.63;;;3.70;;
50104;SDS011;47690;39.202;-77.198;2023-09-19T09:02:49;4.60;;;3.40;;
50104;SDS011;47690;39.202;-77.198;2023-09-19T09:05:29;6.03;;;3.67;;
50104;SDS011;47690;39.202;-77.198;2023-09-19T09:08:05;5.05;;;3.90;;
50104;SDS011;47690;39.202;-77.198;2023-09-19T09:10:44;5.03;;;3.92;;
50104;SDS011;47690;39.202;-77.198;2023-09-19T09:13:20;4.22;;;3.70;;
50104;SDS011;47690;39.202;-77.198;2023-09-19T09:15:55;4.28;;;3.63;;
50104;SDS011;47690;39.202;-77.198;2023-09-19T09:18:30;4.68;;;3.35;;
50104;SDS011;47690;39.202;-77.198;2023-09-19T09:21:06;4.63;;;3.65;;
50104;SDS011;47690;39.202;-77.198;2023-09-19T09:23:47;4.28;;;3.58;;
50104;SDS011;47690;39.202;-77.198;2023-09-19T09:26:40;4.20;;;3.58;;
50104;SDS011;47690;39.202;-77.198;2023-09-19T09:29:15;3.90;;;3.40;;
50104;SDS011;47690;39.202;-77.198;2023-09-19T09:32:20;5.40;;;3.50;;
50104;SDS011;47690;39.202;-77.198;2023-09-19T09:34:56;5.25;;;3.78;;
50104;SDS011;47690;39.202;-77.198;2023-09-19T09:37:34;5.43;;;3.47;;
50104;SDS011;47690;39.202;-77.198;2023-09-19T09:40:08;4.60;;;3.63;;
50104;SDS011;47690;39.202;-77.198;2023-09-19T09:42:50;5.43;;;3.42;;
50104;SDS011;47690;39.202;-77.198;2023-09-19T09:45:28;4.53;;;3.40;;
50104;SDS011;47690;39.202;-77.198;2023-09-19T09:48:11;3.88;;;3.40;;
50104;SDS011;47690;39.202;-77.198;2023-09-19T09:50:52;4.00;;;3.50;;
50104;SDS011;47690;39.202;-77.198;2023-09-19T09:53:30;4.50;;;3.40;;
50104;SDS011;47690;39.202;-77.198;2023-09-19T09:56:11;3.75;;;3.17;;
50104;SDS011;47690;39.202;-77.198;2023-09-19T09:58:51;5.93;;;3.47;;
50104;SDS011;47690;39.202;-77.198;2023-09-19T10:01:47;3.72;;;3.20;;
50104;SDS011;47690;39.202;-77.198;2023-09-19T10:04:28;5.07;;;3.33;;
50104;SDS011;47690;39.202;-77.198;2023-09-19T10:07:14;3.45;;;3.10;;
50104;SDS011;47690;39.202;-77.198;2023-09-19T10:10:10;3.95;;;3.30;;
50104;SDS011;47690;39.202;-77.198;2023-09-19T10:12:47;3.47;;;3.10;;
50104;SDS011;47690;39.202;-77.198;2023-09-19T10:15:23;3.88;;;3.28;;
50104;SDS011;47690;39.202;-77.198;2023-09-19T10:18:06;4.18;;;3.20;;
50104;SDS011;47690;39.202;-77.198;2023-09-19T10:20:40;4.00;;;3.50;;
50104;SDS011;47690;39.202;-77.198;2023-09-19T10:23:19;4.47;;;3.38;;
50104;SDS011;47690;39.202;-77.198;2023-09-19T10:26:02;3.78;;;2.95;;
50104;SDS011;47690;39.202;-77.198;2023-09-19T10:28:36;4.05;;;2.83;;
50104;SDS011;47690;39.202;-77.198;2023-09-19T10:31:12;3.42;;;3.05;;
50104;SDS011;47690;39.202;-77.198;2023-09-19T10:33:48;3.67;;;3.20;;
50104;SDS011;47690;39.202;-77.198;2023-09-19T10:36:24;4.00;;;3.40;;
50104;SDS011;47690;39.202;-77.198;2023-09-19T10:39:09;4.13;;;3.33;;
50104;SDS011;47690;39.202;-77.198;2023-09-19T10:41:52;3.53;;;3.10;;
50104;SDS011;47690;39.202;-77.198;2023-09-19T10:44:32;4.28;;;3.50;;
50104;SDS011;47690;39.202;-77.198;2023-09-19T10:47:12;4.43;;;3.50;;
50104;SDS011;47690;39.202;-77.198;2023-09-19T10:49:48;4.45;;;3.50;;
50104;SDS011;47690;39.202;-77.198;2023-09-19T10:52:22;4.03;;;3.38;;
50104;SDS011;47690;39.202;-77.198;2023-09-19T10:55:04;3.50;;;3.13;;
50104;SDS011;47690;39.202;-77.198;2023-09-19T10:57:43;4.47;;;3.30;;
50104;SDS011;47690;39.202;-77.198;2023-09-19T11:00:16;4.03;;;3.25;;
50104;SDS011;47690;39.202;-77.198;2023-09-19T11:06:03;4.20;;;3.10;;
50104;SDS011;47690;39.202;-77.198;2023-09-19T11:08:58;3.97;;;3.25;;
50104;SDS011;47690;39.202;-77.198;2023-09-19T11:11:46;3.50;;;3.00;;
50104;SDS011;47690;39.202;-77.198;2023-09-19T11:14:29;4.05;;;3.30;;
50104;SDS011;47690;39.202;-77.198;2023-09-19T11:31:40;4.38;;;3.10;;
50104;SDS011;47690;39.202;-77.198;2023-09-19T11:42:57;3.72;;;3.20;;
50104;SDS011;47690;39.202;-77.198;2023-09-19T11:48:28;3.17;;;2.85;;
50104;SDS011;47690;39.202;-77.198;2023-09-19T11:51:11;4.03;;;2.90;;
50104;SDS011;47690;39.202;-77.198;2023-09-19T11:53:51;5.93;;;3.40;;
50104;SDS011;47690;39.202;-77.198;2023-09-19T11:56:26;5.15;;;3.22;;
50104;SDS011;47690;39.202;-77.198;2023-09-19T11:59:03;3.35;;;2.90;;
50104;SDS011;47690;39.202;-77.198;2023-09-19T12:01:35;3.83;;;2.97;;
50104;SDS011;47690;39.202;-77.198;2023-09-19T12:04:18;4.95;;;3.15;;
50104;SDS011;47690;39.202;-77.198;2023-09-19T12:07:20;3.78;;;3.10;;
50104;SDS011;47690;39.202;-77.198;2023-09-19T12:12:36;3.67;;;2.97;;
50104;SDS011;47690;39.202;-77.198;2023-09-19T12:15:07;3.35;;;2.90;;
50104;SDS011;47690;39.202;-77.198;2023-09-19T12:17:42;3.30;;;2.83;;
50104;SDS011;47690;39.202;-77.198;2023-09-19T12:20:15;3.40;;;2.90;;
50104;SDS011;47690;39.202;-77.198;2023-09-19T12:25:22;3.80;;;3.05;;
50104;SDS011;47690;39.202;-77.198;2023-09-19T12:27:57;3.53;;;3.10;;
50104;SDS011;47690;39.202;-77.198;2023-09-19T12:30:35;3.15;;;2.75;;
50104;SDS011;47690;39.202;-77.198;2023-09-19T12:33:26;3.25;;;2.88;;
50104;SDS011;47690;39.202;-77.198;2023-09-19T12:35:59;3.72;;;3.08;;
50104;SDS011;47690;39.202;-77.198;2023-09-19T12:38:33;4.20;;;3.30;;
50104;SDS011;47690;39.202;-77.198;2023-09-19T12:41:07;3.28;;;2.90;;
50104;SDS011;47690;39.202;-77.198;2023-09-19T12:43:43;3.17;;;2.88;;
50104;SDS011;47690;39.202;-77.198;2023-09-19T12:46:15;3.90;;;3.50;;
50104;SDS011;47690;39.202;-77.198;2023-09-19T12:51:48;3.72;;;3.00;;
50104;SDS011;47690;39.202;-77.198;2023-09-19T12:54:22;3.97;;;3.30;;
50104;SDS011;47690;39.202;-77.198;2023-09-19T12:56:56;3.45;;;2.97;;
50104;SDS011;47690;39.202;-77.198;2023-09-19T12:59:31;4.95;;;3.40;;
50104;SDS011;47690;39.202;-77.198;2023-09-19T13:02:08;3.63;;;3.05;;
50104;SDS011;47690;39.202;-77.198;2023-09-19T13:04:52;3.17;;;2.83;;
50104;SDS011;47690;39.202;-77.198;2023-09-19T13:07:41;3.45;;;2.95;;
50104;SDS011;47690;39.202;-77.198;2023-09-19T13:10:24;3.53;;;3.00;;
50104;SDS011;47690;39.202;-77.198;2023-09-19T13:12:57;3.55;;;2.97;;
50104;SDS011;47690;39.202;-77.198;2023-09-19T13:16:01;3.60;;;2.85;;
50104;SDS011;47690;39.202;-77.198;2023-09-19T13:18:48;4.45;;;2.80;;
50104;SDS011;47690;39.202;-77.198;2023-09-19T13:21:33;3.78;;;3.10;;
50104;SDS011;47690;39.202;-77.198;2023-09-19T13:24:29;4.43;;;3.08;;
50104;SDS011;47690;39.202;-77.198;2023-09-19T13:27:06;3.45;;;3.15;;
50104;SDS011;47690;39.202;-77.198;2023-09-19T13:29:41;3.55;;;3.17;;
50104;SDS011;47690;39.202;-77.198;2023-09-19T13:32:32;3.58;;;3.00;;
50104;SDS011;47690;39.202;-77.198;2023-09-19T13:35:07;3.70;;;2.97;;
50104;SDS011;47690;39.202;-77.198;2023-09-19T13:37:51;3.87;;;2.90;;
50104;SDS011;47690;39.202;-77.198;2023-09-19T13:40:24;3.85;;;3.10;;
50104;SDS011;47690;39.202;-77.198;2023-09-19T13:43:11;3.53;;;3.20;;
50104;SDS011;47690;39.202;-77.198;2023-09-19T13:46:00;3.67;;;3.08;;
50104;SDS011;47690;39.202;-77.198;2023-09-19T13:48:45;3.72;;;3.25;;
50104;SDS011;47690;39.202;-77.198;2023-09-19T13:51:37;3.50;;;3.00;;
50104;SDS011;47690;39.202;-77.198;2023-09-19T13:54:15;3.63;;;3.20;;
50104;SDS011;47690;39.202;-77.198;2023-09-19T13:56:48;3.85;;;3.08;;
50104;SDS011;47690;39.202;-77.198;2023-09-19T13:59:23;3.45;;;2.92;;
50104;SDS011;47690;39.202;-77.198;2023-09-19T14:02:04;3.75;;;3.10;;
50104;SDS011;47690;39.202;-77.198;2023-09-19T14:04:47;3.35;;;3.05;;
50104;SDS011;47690;39.202;-77.198;2023-09-19T14:07:36;3.30;;;2.90;;
50104;SDS011;47690;39.202;-77.198;2023-09-19T14:10:16;3.67;;;3.10;;
50104;SDS011;47690;39.202;-77.198;2023-09-19T14:12:51;3.33;;;3.03;;
50104;SDS011;47690;39.202;-77.198;2023-09-19T14:15:36;3.63;;;2.95;;
50104;SDS011;47690;39.202;-77.198;2023-09-19T14:18:19;2.90;;;2.60;;
50104;SDS011;47690;39.202;-77.198;2023-09-19T14:21:01;4.25;;;2.92;;
50104;SDS011;47690;39.202;-77.198;2023-09-19T14:24:17;3.03;;;2.72;;
50104;SDS011;47690;39.202;-77.198;2023-09-19T14:27:19;3.20;;;2.90;;
50104;SDS011;47690;39.202;-77.198;2023-09-19T14:29:59;3.10;;;2.72;;
50104;SDS011;47690;39.202;-77.198;2023-09-19T14:32:55;3.33;;;2.80;;
50104;SDS011;47690;39.202;-77.198;2023-09-19T14:35:38;3.75;;;2.92;;
50104;SDS011;47690;39.202;-77.198;2023-09-19T14:38:17;3.17;;;2.72;;
50104;SDS011;47690;39.202;-77.198;2023-09-19T14:41:21;3.42;;;2.90;;
50104;SDS011;47690;39.202;-77.198;2023-09-19T14:44:08;3.53;;;3.00;;
50104;SDS011;47690;39.202;-77.198;2023-09-19T14:47:00;3.75;;;2.90;;
50104;SDS011;47690;39.202;-77.198;2023-09-19T14:49:51;3.00;;;2.70;;
50104;SDS011;47690;39.202;-77.198;2023-09-19T14:52:35;3.63;;;2.80;;
50104;SDS011;47690;39.202;-77.198;2023-09-19T14:55:20;4.18;;;2.85;;
50104;SDS011;47690;39.202;-77.198;2023-09-19T14:58:26;3.40;;;2.88;;
50104;SDS011;47690;39.202;-77.198;2023-09-19T15:01:13;3.45;;;2.97;;
50104;SDS011;47690;39.202;-77.198;2023-09-19T15:04:03;3.17;;;2.80;;
50104;SDS011;47690;39.202;-77.198;2023-09-19T15:07:01;3.38;;;2.50;;
50104;SDS011;47690;39.202;-77.198;2023-09-19T15:09:45;3.40;;;2.90;;
50104;SDS011;47690;39.202;-77.198;2023-09-19T15:12:31;3.08;;;2.60;;
50104;SDS011;47690;39.202;-77.198;2023-09-19T15:15:24;3.28;;;2.83;;
50104;SDS011;47690;39.202;-77.198;2023-09-19T15:18:06;2.88;;;2.60;;
50104;SDS011;47690;39.202;-77.198;2023-09-19T15:20:51;4.40;;;2.72;;
50104;SDS011;47690;39.202;-77.198;2023-09-19T15:23:43;3.10;;;2.80;;
50104;SDS011;47690;39.202;-77.198;2023-09-19T15:26:27;2.90;;;2.60;;
50104;SDS011;47690;39.202;-77.198;2023-09-19T15:29:08;4.35;;;2.85;;
50104;SDS011;47690;39.202;-77.198;2023-09-19T15:31:54;4.22;;;2.72;;
50104;SDS011;47690;39.202;-77.198;2023-09-19T15:34:47;3.92;;;2.63;;
50104;SDS011;47690;39.202;-77.198;2023-09-19T15:37:27;3.28;;;2.88;;
50104;SDS011;47690;39.202;-77.198;2023-09-19T15:40:33;3.95;;;2.53;;
50104;SDS011;47690;39.202;-77.198;2023-09-19T15:43:53;3.10;;;2.63;;
50104;SDS011;47690;39.202;-77.198;2023-09-19T15:47:04;3.55;;;2.60;;
50104;SDS011;47690;39.202;-77.198;2023-09-19T15:49:45;3.45;;;2.70;;
50104;SDS011;47690;39.202;-77.198;2023-09-19T15:52:27;3.08;;;2.60;;
50104;SDS011;47690;39.202;-77.198;2023-09-19T15:55:07;3.75;;;2.70;;
50104;SDS011;47690;39.202;-77.198;2023-09-19T15:57:48;3.53;;;2.55;;
50104;SDS011;47690;39.202;-77.198;2023-09-19T16:00:27;3.15;;;2.70;;
50104;SDS011;47690;39.202;-77.198;2023-09-19T16:03:03;4.43;;;2.80;;
50104;SDS011;47690;39.202;-77.198;2023-09-19T16:05:41;3.15;;;2.80;;
50104;SDS011;47690;39.202;-77.198;2023-09-19T16:08:29;3.33;;;2.90;;
50104;SDS011;47690;39.202;-77.198;2023-09-19T16:11:17;2.90;;;2.58;;
50104;SDS011;47690;39.202;-77.198;2023-09-19T16:13:58;3.05;;;2.75;;
50104;SDS011;47690;39.202;-77.198;2023-09-19T16:16:48;3.65;;;2.72;;
50104;SDS011;47690;39.202;-77.198;2023-09-19T16:19:39;3.13;;;2.72;;
50104;SDS011;47690;39.202;-77.198;2023-09-19T16:22:16;5.00;;;2.83;;
50104;SDS011;47690;39.202;-77.198;2023-09-19T16:25:19;3.42;;;2.90;;
50104;SDS011;47690;39.202;-77.198;2023-09-19T16:27:51;3.38;;;2.80;;
50104;SDS011;47690;39.202;-77.198;2023-09-19T16:30:24;2.70;;;2.50;;
50104;SDS011;47690;39.202;-77.198;2023-09-19T16:32:57;3.10;;;2.63;;
50104;SDS011;47690;39.202;-77.198;2023-09-19T16:35:50;3.75;;;2.85;;
50104;SDS011;47690;39.202;-77.198;2023-09-19T16:38:41;3.03;;;2.65;;
50104;SDS011;47690;39.202;-77.198;2023-09-19T16:41:31;2.85;;;2.50;;
50104;SDS011;47690;39.202;-77.198;2023-09-19T16:44:15;2.65;;;2.45;;
50104;SDS011;47690;39.202;-77.198;2023-09-19T16:48:25;2.80;;;2.55;;